Terminal Aerodrome Forecast
Issued by NWS Bismarck, ND

Home | Current Version | Previous Version | Text Only | Print | Product List | Glossary Off
Versions: 1 2 3 4 5 6 7 8 9 10 11 12 13 14

000
FTUS43 KBIS 180533
TAFBIS
TAF
KBIS 180533Z 1806/1906 27005KT P6SM FEW250
     FM181200 24003KT P6SM SCT250
     FM181700 11005KT P6SM OVC120
     FM182300 09006KT P6SM SCT100=

USA.gov is the U.S. government's official web portal to all federal, state and local government web resources and services.